Time;durP1;ratioP1;P1;durP2;ratioP2;P2;SDS_P1;SDS_P2;PMS_P1;PMS_P2;Temp;Humidity;BMP_temperature;BMP_pressure;BME280_temperature;BME280_humidity;BME280_pressure;Samples;Min_cycle;Max_cycle;Signal;HPM_P1;HPM_P2
2023/05/23 00:00:57;;;;;;;10.18;6.50;;;;;;;14.76;100.00;100085.84;5529896;32;34523;-70
2023/05/23 00:04:00;;;;;;;10.50;6.45;;;;;;;14.75;100.00;100086.88;5528970;32;33929;-70
2023/05/23 00:07:04;;;;;;;9.68;6.82;;;;;;;14.76;100.00;100091.19;5529903;32;33920;-70
2023/05/23 00:10:08;;;;;;;12.07;6.47;;;;;;;14.75;100.00;100081.53;5530110;32;34361;-70
2023/05/23 00:13:13;;;;;;;13.25;6.60;;;;;;;14.71;100.00;100080.28;5529703;32;34518;-69
2023/05/23 00:16:17;;;;;;;11.15;6.47;;;;;;;14.74;100.00;100077.22;5529490;32;34136;-70
2023/05/23 00:19:20;;;;;;;9.65;6.50;;;;;;;14.72;100.00;100073.91;5529641;32;33955;-70
2023/05/23 00:22:25;;;;;;;11.65;6.10;;;;;;;14.66;100.00;100080.91;5529593;32;34507;-70
2023/05/23 00:25:33;;;;;;;7.87;6.35;;;;;;;14.62;100.00;100079.62;5529591;32;33897;-70
2023/05/23 00:28:37;;;;;;;16.15;6.20;;;;;;;14.59;100.00;100076.56;5529682;32;33601;-70
2023/05/23 00:31:45;;;;;;;11.32;6.37;;;;;;;14.55;100.00;100076.12;5529574;32;34541;-69
2023/05/23 00:34:49;;;;;;;10.98;6.25;;;;;;;14.56;100.00;100077.78;5529556;32;34302;-69
2023/05/23 00:37:54;;;;;;;9.15;6.40;;;;;;;14.53;100.00;100072.84;5529449;32;34442;-69
2023/05/23 00:40:58;;;;;;;19.40;6.93;;;;;;;14.54;100.00;100074.50;5529524;32;34310;-69
2023/05/23 00:44:02;;;;;;;10.65;6.57;;;;;;;14.54;100.00;100077.16;5528658;32;34455;-69
2023/05/23 00:47:07;;;;;;;10.23;6.80;;;;;;;14.51;100.00;100082.91;5529247;32;33857;-69
2023/05/23 00:50:14;;;;;;;10.88;6.25;;;;;;;14.56;100.00;100079.62;5529376;32;34253;-69
2023/05/23 00:53:19;;;;;;;12.80;6.75;;;;;;;14.60;100.00;100078.19;5529415;32;33726;-69
2023/05/23 00:56:25;;;;;;;10.27;6.07;;;;;;;14.62;100.00;100078.84;5522702;32;33698;-69
2023/05/23 00:59:30;;;;;;;10.68;6.37;;;;;;;14.72;100.00;100077.41;5529296;32;34575;-69
2023/05/23 01:02:40;;;;;;;9.70;6.10;;;;;;;14.71;100.00;100081.13;5529249;32;34484;-69
2023/05/23 01:05:44;;;;;;;10.10;6.35;;;;;;;14.63;100.00;100080.47;5528418;32;33681;-69
2023/05/23 01:08:48;;;;;;;7.32;5.90;;;;;;;14.56;100.00;100076.97;5528229;32;34614;-69
2023/05/23 01:12:07;;;;;;;11.57;6.15;;;;;;;14.49;100.00;100068.94;5529261;32;34189;-69
2023/05/23 01:15:14;;;;;;;8.32;5.90;;;;;;;14.55;100.00;100065.47;5529197;32;33871;-69
2023/05/23 01:18:40;;;;;;;7.85;5.18;;;;;;;14.50;100.00;100075.09;5528896;32;34732;-68
2023/05/23 01:21:51;;;;;;;7.72;5.28;;;;;;;14.60;100.00;100072.88;5529131;32;34628;-69
2023/05/23 01:25:38;;;;;;;8.38;5.53;;;;;;;14.68;100.00;100078.00;5529183;32;33833;-68
2023/05/23 01:28:46;;;;;;;9.63;5.55;;;;;;;14.63;100.00;100069.78;5529014;32;33902;-69
2023/05/23 01:31:56;;;;;;;8.90;6.20;;;;;;;14.61;100.00;100071.84;5529170;32;33793;-68
2023/05/23 01:35:01;;;;;;;11.57;6.00;;;;;;;14.54;100.00;100068.31;5529334;32;33571;-69
2023/05/23 01:38:04;;;;;;;10.50;6.20;;;;;;;14.34;100.00;100074.37;5529092;32;34385;-69
2023/05/23 01:41:08;;;;;;;9.57;6.47;;;;;;;14.20;100.00;100072.69;5529051;32;33777;-69
2023/05/23 01:44:12;;;;;;;16.42;6.43;;;;;;;14.15;100.00;100072.44;5529098;32;33697;-69
2023/05/23 01:47:16;;;;;;;9.05;6.55;;;;;;;14.07;100.00;100069.12;5528991;32;33838;-68
2023/05/23 01:50:22;;;;;;;9.82;6.60;;;;;;;14.03;100.00;100071.37;5528822;32;34770;-68
2023/05/23 01:53:26;;;;;;;11.80;6.00;;;;;;;14.05;100.00;100072.00;5528718;32;33789;-69
2023/05/23 01:56:30;;;;;;;12.90;5.70;;;;;;;14.01;100.00;100061.91;5522935;32;34461;-69
2023/05/23 01:59:34;;;;;;;12.90;6.00;;;;;;;14.05;100.00;100057.81;5528948;32;34060;-69
2023/05/23 02:02:38;;;;;;;10.50;5.85;;;;;;;14.04;100.00;100061.53;5528855;32;33825;-69
2023/05/23 02:05:43;;;;;;;12.43;6.37;;;;;;;13.94;100.00;100054.69;5529108;32;34550;-69
2023/05/23 02:08:46;;;;;;;10.18;6.15;;;;;;;13.88;100.00;100054.69;5529108;32;33645;-69
2023/05/23 02:11:53;;;;;;;11.55;6.20;;;;;;;13.80;100.00;100052.97;5540263;32;33841;-69
2023/05/23 02:14:57;;;;;;;10.85;5.82;;;;;;;13.73;100.00;100049.47;5528762;32;34978;-69
2023/05/23 02:18:02;;;;;;;12.52;6.40;;;;;;;13.70;100.00;100044.50;5528558;32;34484;-69
2023/05/23 02:21:05;;;;;;;8.15;6.20;;;;;;;13.66;100.00;100040.59;5527197;32;34124;-69
2023/05/23 02:24:12;;;;;;;9.60;5.90;;;;;;;13.64;100.00;100047.97;5528679;32;33813;-69
2023/05/23 02:27:16;;;;;;;7.07;6.20;;;;;;;13.57;100.00;100047.09;5528771;32;33783;-69
2023/05/23 02:30:19;;;;;;;9.13;6.35;;;;;;;13.55;100.00;100049.16;5528649;32;33577;-68
2023/05/23 02:33:24;;;;;;;12.48;6.57;;;;;;;13.53;100.00;100050.34;5528066;32;33621;-68
2023/05/23 02:36:29;;;;;;;12.13;6.55;;;;;;;13.49;100.00;100049.94;5528499;32;34648;-68
2023/05/23 02:39:35;;;;;;;10.25;6.55;;;;;;;13.46;100.00;100047.63;5528740;32;33810;-69
2023/05/23 02:42:39;;;;;;;10.80;6.25;;;;;;;13.44;100.00;100045.19;5528516;32;35002;-69
2023/05/23 02:45:42;;;;;;;11.85;6.40;;;;;;;13.46;100.00;100052.97;5528454;32;33830;-69
2023/05/23 02:48:46;;;;;;;10.90;5.95;;;;;;;13.50;100.00;100043.59;5528388;32;33848;-69
2023/05/23 02:51:49;;;;;;;9.70;6.55;;;;;;;13.49;100.00;100044.59;5528220;32;34111;-69
2023/05/23 02:54:53;;;;;;;10.48;5.93;;;;;;;13.45;100.00;100054.00;5521742;32;33956;-69
2023/05/23 02:58:00;;;;;;;11.32;6.70;;;;;;;13.43;100.00;100043.53;5528266;32;33590;-69
2023/05/23 03:01:04;;;;;;;11.20;6.03;;;;;;;13.41;100.00;100050.06;5528307;32;33701;-68
2023/05/23 03:04:10;;;;;;;8.85;6.45;;;;;;;13.41;100.00;100047.37;5528588;32;34516;-68
2023/05/23 03:07:15;;;;;;;10.73;7.10;;;;;;;13.40;100.00;100051.91;5528272;32;34462;-69
2023/05/23 03:10:30;;;;;;;11.27;7.07;;;;;;;13.39;100.00;100036.94;5528268;32;33657;-69
2023/05/23 03:13:34;;;;;;;9.57;6.97;;;;;;;13.37;100.00;100038.97;5528169;32;34645;-68
2023/05/23 03:16:38;;;;;;;9.38;6.37;;;;;;;13.43;100.00;100037.37;5528091;32;34505;-69
2023/05/23 03:19:42;;;;;;;13.35;5.90;;;;;;;13.59;100.00;100041.59;5527894;32;34462;-68
2023/05/23 03:22:46;;;;;;;10.18;5.25;;;;;;;13.75;100.00;100047.41;5527805;32;34803;-68
2023/05/23 03:25:50;;;;;;;12.57;5.78;;;;;;;13.92;100.00;100053.25;5527945;32;33863;-68
2023/05/23 03:28:54;;;;;;;9.73;6.00;;;;;;;13.86;100.00;100054.88;5528083;32;34739;-69
2023/05/23 03:31:59;;;;;;;13.15;5.75;;;;;;;13.88;100.00;100060.84;5528634;32;34518;-68
2023/05/23 03:35:03;;;;;;;9.95;6.07;;;;;;;14.01;100.00;100057.41;5530095;32;35342;-68
2023/05/23 03:38:07;;;;;;;11.55;5.78;;;;;;;13.96;100.00;100054.50;5530007;32;33709;-68
2023/05/23 03:41:10;;;;;;;11.27;5.62;;;;;;;13.91;100.00;100051.63;5530088;32;35227;-69
2023/05/23 03:44:14;;;;;;;11.30;5.60;;;;;;;13.91;100.00;100051.63;5530086;32;33829;-68
2023/05/23 03:47:17;;;;;;;8.13;5.32;;;;;;;13.88;100.00;100049.34;5529999;32;34758;-69
2023/05/23 03:50:21;;;;;;;8.57;5.75;;;;;;;13.92;100.00;100050.59;5529909;32;33960;-68
2023/05/23 03:53:25;;;;;;;10.90;5.87;;;;;;;13.92;100.00;100054.09;5528854;32;34651;-69
2023/05/23 03:56:30;;;;;;;13.57;5.97;;;;;;;13.92;100.00;100059.44;5529869;32;33619;-68
2023/05/23 03:59:34;;;;;;;9.93;5.70;;;;;;;13.91;100.00;100052.44;5529934;32;34447;-67
2023/05/23 04:02:39;;;;;;;11.02;6.05;;;;;;;13.97;100.00;100053.50;5529928;32;33811;-68
2023/05/23 04:05:43;;;;;;;10.95;6.20;;;;;;;14.08;100.00;100049.44;5533641;32;34438;-68
2023/05/23 04:08:47;;;;;;;14.80;6.05;;;;;;;14.15;100.00;100050.28;5550448;32;33767;-68
2023/05/23 04:11:51;;;;;;;10.85;5.70;;;;;;;14.18;100.00;100045.41;5549067;32;33571;-68
2023/05/23 04:14:54;;;;;;;9.73;6.15;;;;;;;14.19;100.00;100048.88;5548579;32;34017;-68
2023/05/23 04:17:59;;;;;;;12.27;6.57;;;;;;;14.31;100.00;100056.12;5549093;32;33920;-68
2023/05/23 04:21:03;;;;;;;10.43;6.70;;;;;;;14.29;100.00;100057.31;5548891;32;33209;-68
2023/05/23 04:24:08;;;;;;;10.80;6.12;;;;;;;14.37;100.00;100061.72;5548921;32;33940;-69
2023/05/23 04:27:13;;;;;;;9.43;6.10;;;;;;;14.43;100.00;100056.38;5548954;32;35087;-69
2023/05/23 04:30:17;;;;;;;12.18;6.00;;;;;;;14.49;100.00;100060.09;5549135;32;33611;-68
2023/05/23 04:33:21;;;;;;;13.10;6.32;;;;;;;14.61;100.00;100061.16;5548594;32;35346;-68
2023/05/23 04:36:26;;;;;;;16.87;6.00;;;;;;;14.72;100.00;100050.69;5548486;32;33674;-69
2023/05/23 04:39:29;;;;;;;7.12;5.57;;;;;;;14.79;100.00;100056.06;5548442;32;34089;-68
2023/05/23 04:42:35;;;;;;;9.98;5.95;;;;;;;14.88;100.00;100049.50;5548693;32;33662;-68
2023/05/23 04:45:40;;;;;;;11.82;5.75;;;;;;;15.06;100.00;100063.06;5547777;32;34704;-69
2023/05/23 04:48:45;;;;;;;14.45;6.20;;;;;;;15.08;100.00;100063.72;5535382;32;34185;-68
2023/05/23 04:51:48;;;;;;;10.27;5.43;;;;;;;15.09;100.00;100064.53;5545310;32;34440;-68
2023/05/23 04:54:52;;;;;;;13.05;5.40;;;;;;;15.22;100.00;100057.34;5547837;32;34049;-68
2023/05/23 04:57:56;;;;;;;12.90;6.10;;;;;;;15.32;100.00;100056.94;5545936;32;33876;-67
2023/05/23 05:01:00;;;;;;;7.75;5.47;;;;;;;15.50;100.00;100050.94;5529498;32;34537;-68
2023/05/23 05:04:03;;;;;;;12.15;5.82;;;;;;;15.60;100.00;100048.69;5532523;32;34380;-69
2023/05/23 05:07:07;;;;;;;10.52;6.05;;;;;;;15.69;100.00;100058.13;5548372;32;33946;-69
2023/05/23 05:10:15;;;;;;;13.55;6.20;;;;;;;15.65;100.00;100047.03;5548575;32;33623;-68
2023/05/23 05:13:19;;;;;;;8.25;5.68;;;;;;;15.80;100.00;100056.69;5543588;32;33553;-69
2023/05/23 05:16:23;;;;;;;16.00;5.75;;;;;;;15.76;100.00;100050.13;5545260;32;34409;-68
2023/05/23 05:19:27;;;;;;;9.48;5.65;;;;;;;15.88;100.00;100053.78;5547367;32;33915;-69
2023/05/23 05:22:30;;;;;;;7.93;5.18;;;;;;;16.09;100.00;100051.66;5545155;32;34258;-68
2023/05/23 05:25:35;;;;;;;10.32;4.90;;;;;;;16.29;100.00;100056.12;5533267;32;34155;-69
2023/05/23 05:28:38;;;;;;;6.50;4.90;;;;;;;16.45;100.00;100067.16;5538690;32;33895;-68
2023/05/23 05:31:44;;;;;;;7.03;4.30;;;;;;;16.53;100.00;100068.78;5545456;32;34501;-68
2023/05/23 05:34:47;;;;;;;8.32;4.87;;;;;;;16.56;100.00;100059.47;5546904;32;33839;-69
2023/05/23 05:37:52;;;;;;;8.48;4.70;;;;;;;16.52;100.00;100061.75;5543499;32;35045;-69
2023/05/23 05:40:55;;;;;;;12.85;5.10;;;;;;;16.85;100.00;100065.09;5545743;32;34784;-69
2023/05/23 05:44:00;;;;;;;9.05;5.35;;;;;;;17.06;100.00;100074.66;5545187;32;33580;-68
2023/05/23 05:47:03;;;;;;;12.40;4.95;;;;;;;17.17;100.00;100062.41;5544714;32;34318;-69
2023/05/23 05:50:09;;;;;;;11.88;5.10;;;;;;;17.16;100.00;100060.78;5541984;32;33927;-68
2023/05/23 05:53:13;;;;;;;15.23;5.57;;;;;;;17.40;100.00;100051.91;5541748;32;34639;-69
2023/05/23 05:56:16;;;;;;;15.02;5.00;;;;;;;17.42;100.00;100057.06;5533553;32;34091;-69
2023/05/23 05:59:19;;;;;;;17.70;5.15;;;;;;;17.63;100.00;100062.03;5533813;32;34407;-69
2023/05/23 06:02:23;;;;;;;11.75;4.87;;;;;;;17.77;100.00;100056.31;5531562;32;34815;-69
2023/05/23 06:05:26;;;;;;;18.85;4.85;;;;;;;17.73;100.00;100052.44;5544872;32;33861;-69
2023/05/23 06:08:30;;;;;;;14.82;5.55;;;;;;;17.66;100.00;100050.87;5540867;32;33845;-68
2023/05/23 06:11:33;;;;;;;10.55;5.62;;;;;;;17.57;100.00;100058.34;5538789;32;33672;-69
2023/05/23 06:14:37;;;;;;;8.80;5.25;;;;;;;17.67;100.00;100055.22;5529376;32;33691;-68
2023/05/23 06:17:41;;;;;;;22.10;6.32;;;;;;;17.81;100.00;100056.72;5542417;32;33488;-68
2023/05/23 06:20:44;;;;;;;34.88;7.70;;;;;;;18.08;100.00;100060.72;5546150;32;33962;-69
2023/05/23 06:23:48;;;;;;;10.27;5.25;;;;;;;18.10;100.00;100055.97;5543367;32;33478;-69
2023/05/23 06:26:51;;;;;;;14.00;5.53;;;;;;;18.45;100.00;100056.12;5544495;32;34164;-68
2023/05/23 06:29:54;;;;;;;14.38;5.15;;;;;;;18.61;100.00;100060.09;5547135;32;34583;-69
2023/05/23 06:32:58;;;;;;;13.45;6.05;;;;;;;18.71;100.00;100055.00;5547235;32;33666;-68
2023/05/23 06:36:01;;;;;;;8.82;5.47;;;;;;;18.81;100.00;100057.94;5546146;32;34440;-68
2023/05/23 06:39:08;;;;;;;8.80;5.87;;;;;;;18.95;100.00;100054.00;5540643;32;33826;-69
2023/05/23 06:42:12;;;;;;;15.95;5.68;;;;;;;19.15;100.00;100056.41;5539229;32;33970;-68
2023/05/23 06:45:16;;;;;;;15.48;5.62;;;;;;;19.24;100.00;100060.38;5540483;32;32956;-68
2023/05/23 06:48:19;;;;;;;20.25;6.35;;;;;;;19.39;100.00;100046.47;5546603;32;34308;-69
2023/05/23 06:51:22;;;;;;;12.37;5.80;;;;;;;19.71;100.00;100049.66;5543063;32;34404;-69
2023/05/23 06:54:26;;;;;;;13.93;5.85;;;;;;;19.98;100.00;100048.13;5540155;32;34343;-69
2023/05/23 06:57:29;;;;;;;14.15;6.03;;;;;;;20.26;100.00;100052.72;5545352;32;34538;-69
2023/05/23 07:00:33;;;;;;;10.63;5.07;;;;;;;20.57;100.00;100049.63;5531017;32;34848;-69
2023/05/23 07:03:40;;;;;;;13.23;6.15;;;;;;;20.63;100.00;100045.94;5529525;32;34658;-69
2023/05/23 07:06:44;;;;;;;12.75;5.87;;;;;;;20.87;100.00;100043.94;5546412;32;33754;-69
2023/05/23 07:09:47;;;;;;;10.25;5.37;;;;;;;21.12;100.00;100043.56;5530402;32;34517;-68
2023/05/23 07:12:51;;;;;;;9.18;5.05;;;;;;;21.50;100.00;100040.13;5526994;32;34542;-68
2023/05/23 07:15:55;;;;;;;18.08;5.32;;;;;;;21.76;100.00;100038.62;5535745;32;33141;-68
2023/05/23 07:19:00;;;;;;;12.23;5.25;;;;;;;22.23;100.00;100031.69;5547073;32;33832;-67
2023/05/23 07:22:04;;;;;;;12.07;5.15;;;;;;;22.40;100.00;100020.81;5546500;32;33652;-68
2023/05/23 07:25:09;;;;;;;12.68;4.90;;;;;;;22.84;96.57;100016.16;5546935;32;34378;-68
2023/05/23 07:28:12;;;;;;;13.05;4.72;;;;;;;23.55;90.17;100017.53;5546649;32;34917;-69
2023/05/23 07:31:16;;;;;;;12.85;5.00;;;;;;;24.58;78.88;100028.59;5547121;32;33606;-69
2023/05/23 07:34:19;;;;;;;13.90;5.37;;;;;;;25.19;75.50;100028.66;5537435;32;33841;-70
2023/05/23 07:37:23;;;;;;;14.15;4.60;;;;;;;25.73;67.56;100023.44;5546514;32;33999;-69
2023/05/23 07:40:26;;;;;;;13.93;4.40;;;;;;;25.07;67.20;100039.81;5546228;32;34448;-69
2023/05/23 07:43:30;;;;;;;9.65;4.87;;;;;;;26.64;65.12;100028.50;5546596;32;33687;-69
2023/05/23 07:46:33;;;;;;;18.37;5.40;;;;;;;25.86;62.09;100031.00;5546383;32;33953;-69
2023/05/23 07:49:37;;;;;;;10.07;5.03;;;;;;;27.61;58.50;100030.19;5546192;32;33890;-70
2023/05/23 07:52:41;;;;;;;8.68;5.07;;;;;;;27.60;55.82;100020.37;5546675;32;33879;-71
2023/05/23 07:55:45;;;;;;;12.65;5.20;;;;;;;28.18;52.94;100025.75;5546290;32;33883;-69
2023/05/23 07:58:49;;;;;;;12.07;4.65;;;;;;;27.18;52.32;100014.78;5546130;32;34672;-71
2023/05/23 08:01:53;;;;;;;12.65;4.57;;;;;;;28.27;48.67;100023.97;5547417;32;34550;-69
2023/05/23 08:04:58;;;;;;;10.45;5.00;;;;;;;28.63;50.94;100016.13;5546155;32;34598;-70
2023/05/23 08:08:02;;;;;;;18.62;4.78;;;;;;;28.83;49.55;100015.03;5534588;32;33808;-69
2023/05/23 08:11:05;;;;;;;13.18;4.82;;;;;;;28.50;50.34;100012.22;5526944;32;34041;-70
2023/05/23 08:14:11;;;;;;;12.70;4.75;;;;;;;27.83;51.73;100010.63;5526353;32;34546;-70
2023/05/23 08:17:16;;;;;;;13.70;5.22;;;;;;;29.22;49.43;100022.84;5526207;32;34455;-70
2023/05/23 08:20:21;;;;;;;11.18;4.55;;;;;;;29.27;47.28;100015.38;5542103;32;33840;-70
2023/05/23 08:23:25;;;;;;;17.10;5.18;;;;;;;30.60;44.92;100020.69;5540000;32;34578;-69
2023/05/23 08:26:33;;;;;;;15.60;4.72;;;;;;;30.00;48.07;100013.78;5533776;32;33637;-70
2023/05/23 08:29:38;;;;;;;15.95;5.00;;;;;;;30.78;45.12;100018.09;5544282;32;34114;-69
2023/05/23 08:32:41;;;;;;;12.23;4.60;;;;;;;31.17;44.47;100009.22;5543026;32;34551;-70
2023/05/23 08:35:45;;;;;;;6.72;4.12;;;;;;;32.11;41.96;100009.69;5546690;32;33826;-70
2023/05/23 08:38:49;;;;;;;18.25;4.30;;;;;;;30.68;44.21;100015.59;5543048;32;33746;-69
2023/05/23 08:41:53;;;;;;;12.25;5.12;;;;;;;31.43;42.20;100015.66;5542284;32;34490;-69
2023/05/23 08:44:56;;;;;;;9.25;4.37;;;;;;;31.18;42.58;100005.38;5547610;32;34214;-70
2023/05/23 08:48:00;;;;;;;12.55;4.60;;;;;;;31.33;42.52;100010.44;5542118;32;33606;-69
2023/05/23 08:51:07;;;;;;;10.60;4.60;;;;;;;32.47;38.72;100006.66;5543856;32;34777;-70
2023/05/23 08:54:15;;;;;;;14.55;4.50;;;;;;;31.90;41.63;99998.44;5542865;32;33831;-71
2023/05/23 08:57:18;;;;;;;10.93;3.63;;;;;;;33.32;39.33;99998.69;5547804;32;34887;-70
2023/05/23 09:00:25;;;;;;;11.12;4.00;;;;;;;34.55;35.64;100013.97;5542165;32;33935;-70
2023/05/23 09:03:29;;;;;;;10.65;4.10;;;;;;;33.48;37.24;100005.28;5545332;32;34302;-69
2023/05/23 09:06:34;;;;;;;5.55;3.85;;;;;;;33.78;36.65;100009.75;5531516;32;33950;-70
2023/05/23 09:09:37;;;;;;;8.55;3.92;;;;;;;34.54;35.26;100000.53;5546461;32;35402;-71
2023/05/23 09:12:42;;;;;;;6.03;3.78;;;;;;;31.95;38.55;100000.25;5545213;32;33720;-69
2023/05/23 09:15:58;;;;;;;9.13;4.00;;;;;;;32.03;37.85;99999.47;5544485;32;34484;-70
2023/05/23 09:19:11;;;;;;;7.12;3.60;;;;;;;32.06;37.20;99995.25;5548191;32;34875;-69
2023/05/23 09:22:24;;;;;;;15.70;4.18;;;;;;;33.09;35.89;99993.41;5547998;32;34506;-69
2023/05/23 09:25:30;;;;;;;7.57;3.40;;;;;;;34.36;35.27;99997.09;5545658;32;33982;-69
2023/05/23 09:28:35;;;;;;;5.70;3.33;;;;;;;32.34;35.62;99993.87;5528866;32;34625;-70
2023/05/23 09:31:39;;;;;;;6.45;3.37;;;;;;;32.55;37.28;99994.88;5526699;32;34054;-69
2023/05/23 09:35:02;;;;;;;9.80;3.40;;;;;;;33.68;34.49;100001.03;5534617;32;33939;-70
2023/05/23 09:38:07;;;;;;;6.65;3.28;;;;;;;33.83;34.04;99994.97;5548465;32;33924;-70
2023/05/23 09:41:11;;;;;;;6.35;3.00;;;;;;;35.07;32.42;99992.28;5547878;32;34717;-71
2023/05/23 09:44:22;;;;;;;4.45;2.92;;;;;;;35.75;30.77;100000.94;5547149;32;34824;-70
2023/05/23 09:47:26;;;;;;;5.68;2.53;;;;;;;33.94;31.90;99994.25;5543601;32;34881;-70
2023/05/23 09:50:32;;;;;;;7.03;3.42;;;;;;;34.69;29.91;99986.16;5545893;32;34858;-70
2023/05/23 09:53:37;;;;;;;6.68;3.28;;;;;;;35.33;30.72;99992.03;5546299;32;34542;-68
2023/05/23 09:56:42;;;;;;;6.00;3.15;;;;;;;35.78;30.74;99980.94;5537659;32;33808;-68
2023/05/23 09:59:57;;;;;;;6.22;3.40;;;;;;;36.85;30.63;99982.22;5538906;32;33991;-69
2023/05/23 10:03:11;;;;;;;8.45;3.62;;;;;;;35.48;31.57;99974.00;5536110;32;35058;-73
2023/05/23 10:06:43;;;;;;;12.25;3.45;;;;;;;34.19;33.02;99980.69;5542055;32;34631;-68
2023/05/23 10:09:53;;;;;;;7.12;3.20;;;;;;;34.14;32.91;99972.59;5545916;32;33985;-68
2023/05/23 10:13:04;;;;;;;9.90;3.05;;;;;;;35.67;29.98;99969.56;5547470;32;34365;-68
2023/05/23 10:16:17;;;;;;;6.35;3.42;;;;;;;35.86;29.16;99971.75;5547697;32;33881;-70
2023/05/23 10:19:43;;;;;;;10.70;3.55;;;;;;;36.59;29.07;99969.66;5547608;32;34269;-69
2023/05/23 10:22:47;;;;;;;11.63;3.80;;;;;;;34.75;30.64;99955.31;5534403;32;34605;-69
2023/05/23 10:25:52;;;;;;;13.02;5.30;;;;;;;36.82;30.27;99955.28;5538570;32;33744;-69
2023/05/23 10:28:56;;;;;;;7.03;4.30;;;;;;;35.13;32.31;99960.59;5537583;32;33894;-67
2023/05/23 10:32:01;;;;;;;11.00;3.80;;;;;;;36.24;32.63;99954.00;5531723;32;33740;-69
2023/05/23 10:35:25;;;;;;;9.52;3.85;;;;;;;36.13;31.01;99959.19;5528012;32;34108;-70
2023/05/23 10:38:45;;;;;;;9.23;4.00;;;;;;;36.83;29.18;99951.38;5528222;32;33901;-69
2023/05/23 10:41:57;;;;;;;8.05;3.78;;;;;;;33.56;35.34;99950.25;5535011;32;34552;-69
2023/05/23 10:45:21;;;;;;;10.68;4.12;;;;;;;32.50;36.37;99950.28;5528469;32;34510;-68
2023/05/23 10:48:27;;;;;;;5.90;3.50;;;;;;;30.57;39.50;99943.84;5545571;32;33133;-69
2023/05/23 10:51:37;;;;;;;9.52;3.58;;;;;;;32.35;36.85;99943.34;5538718;32;34584;-69
2023/05/23 10:54:46;;;;;;;9.32;4.03;;;;;;;33.55;35.93;99940.37;5530389;32;33691;-70
2023/05/23 10:58:09;;;;;;;9.48;4.35;;;;;;;33.97;33.39;99941.31;5540056;32;33874;-68
2023/05/23 11:01:18;;;;;;;9.55;3.72;;;;;;;35.84;30.81;99931.81;5546793;32;34621;-69
2023/05/23 11:04:28;;;;;;;7.47;3.67;;;;;;;37.66;30.48;99933.81;5546189;32;34947;-70
2023/05/23 11:07:31;;;;;;;8.82;3.67;;;;;;;37.12;29.12;99930.84;5546264;32;33936;-70
2023/05/23 11:10:51;;;;;;;11.00;3.78;;;;;;;36.83;28.85;99926.50;5533173;32;34511;-69
2023/05/23 11:13:59;;;;;;;11.07;4.30;;;;;;;37.64;28.70;99923.09;5545986;32;33889;-69
2023/05/23 11:17:12;;;;;;;7.82;3.87;;;;;;;38.18;29.64;99919.56;5537935;32;33854;-70
2023/05/23 11:20:17;;;;;;;9.43;3.70;;;;;;;37.84;27.73;99908.13;5539778;32;33433;-72
2023/05/23 11:23:23;;;;;;;7.70;4.20;;;;;;;35.60;31.22;99910.53;5546139;32;34591;-69
2023/05/23 11:26:30;;;;;;;10.80;4.55;;;;;;;32.97;35.47;99904.53;5546221;32;33490;-68
2023/05/23 11:29:35;;;;;;;10.43;4.10;;;;;;;32.00;37.87;99895.81;5529946;32;34483;-68
2023/05/23 11:32:38;;;;;;;6.57;4.25;;;;;;;33.33;36.08;99884.84;5526967;32;34616;-68
2023/05/23 11:35:46;;;;;;;14.52;4.87;;;;;;;34.94;34.75;99883.12;5528229;32;33898;-69
2023/05/23 11:38:52;;;;;;;11.77;4.37;;;;;;;31.46;36.81;99881.50;5529829;32;34203;-68
2023/05/23 11:42:02;;;;;;;9.10;3.83;;;;;;;32.65;35.63;99876.47;5546133;32;34783;-69
2023/05/23 11:45:08;;;;;;;6.47;4.10;;;;;;;34.64;34.48;99882.44;5546424;32;33878;-71
2023/05/23 11:48:13;;;;;;;6.28;3.40;;;;;;;34.83;30.90;99874.50;5546347;32;33891;-70
2023/05/23 11:51:16;;;;;;;7.53;3.58;;;;;;;33.31;32.23;99870.63;5545987;32;34244;-70
2023/05/23 11:54:23;;;;;;;7.28;3.72;;;;;;;33.34;33.54;99867.22;5548284;32;33762;-72
2023/05/23 11:57:26;;;;;;;6.72;3.40;;;;;;;35.27;30.36;99850.78;5549233;32;33890;-71
2023/05/23 12:00:30;;;;;;;8.05;3.58;;;;;;;35.28;31.53;99852.41;5549092;32;34558;-69
2023/05/23 12:03:43;;;;;;;8.30;4.00;;;;;;;37.84;29.56;99849.97;5548507;32;33673;-69
2023/05/23 12:06:48;;;;;;;6.65;3.33;;;;;;;37.53;29.75;99835.38;5547914;32;34449;-70
2023/05/23 12:09:55;;;;;;;9.30;4.18;;;;;;;38.44;27.88;99836.59;5548641;32;34225;-72
2023/05/23 12:12:58;;;;;;;9.95;3.62;;;;;;;38.41;26.97;99837.28;5548463;32;34296;-70
2023/05/23 12:16:03;;;;;;;8.23;4.00;;;;;;;36.19;29.22;99839.03;5549067;32;33784;-70
2023/05/23 12:19:06;;;;;;;5.68;3.50;;;;;;;36.96;29.04;99842.31;5548708;32;33948;-70
2023/05/23 12:22:10;;;;;;;6.32;3.47;;;;;;;35.50;30.63;99833.75;5548519;32;34557;-71
2023/05/23 12:25:13;;;;;;;10.23;3.55;;;;;;;38.51;27.49;99822.88;5548227;32;33814;-71
2023/05/23 12:28:16;;;;;;;7.87;3.78;;;;;;;39.97;24.69;99817.66;5549317;32;33788;-69
2023/05/23 12:31:26;;;;;;;5.43;3.30;;;;;;;40.25;25.07;99818.00;5548861;32;33589;-69
2023/05/23 12:34:31;;;;;;;5.72;3.08;;;;;;;38.50;26.27;99807.41;5548844;32;33964;-72
2023/05/23 12:37:38;;;;;;;9.18;3.45;;;;;;;39.49;24.21;99809.06;5548675;32;33859;-71
2023/05/23 12:40:43;;;;;;;8.00;3.22;;;;;;;40.01;24.11;99789.91;5548687;32;33938;-74
2023/05/23 12:43:53;;;;;;;6.30;3.10;;;;;;;39.94;23.35;99807.31;5548250;32;34567;-69
2023/05/23 12:46:58;;;;;;;4.95;3.10;;;;;;;40.88;24.53;99797.59;5548794;32;34255;-70
2023/05/23 12:50:03;;;;;;;7.43;3.55;;;;;;;40.38;23.25;99787.97;5548529;32;33747;-69
2023/05/23 12:53:07;;;;;;;8.30;3.28;;;;;;;42.24;21.95;99789.63;5548501;32;33792;-70
2023/05/23 12:56:11;;;;;;;10.30;3.37;;;;;;;37.47;25.54;99793.38;5548098;32;33846;-71
2023/05/23 12:59:16;;;;;;;11.30;3.58;;;;;;;33.70;29.77;99784.97;5548449;32;33905;-73
2023/05/23 13:02:19;;;;;;;6.18;3.15;;;;;;;32.90;32.09;99773.13;5534662;32;34442;-69
2023/05/23 13:05:23;;;;;;;9.52;3.35;;;;;;;34.74;29.65;99771.81;5527386;32;34420;-69
2023/05/23 13:08:28;;;;;;;4.75;3.33;;;;;;;34.54;30.31;99766.38;5529119;32;34863;-69
2023/05/23 13:11:32;;;;;;;7.10;3.50;;;;;;;33.83;32.22;99750.06;5529013;32;34057;-70
2023/05/23 13:14:35;;;;;;;9.20;3.62;;;;;;;32.27;32.15;99752.00;5527851;32;34572;-68
2023/05/23 13:17:39;;;;;;;14.07;3.53;;;;;;;34.28;29.58;99756.44;5544800;32;33894;-73
2023/05/23 13:20:43;;;;;;;4.85;3.20;;;;;;;34.58;28.84;99756.25;5548342;32;33885;-70
2023/05/23 13:23:46;;;;;;;7.78;3.33;;;;;;;36.76;26.10;99765.97;5540180;32;33822;-70
2023/05/23 13:26:50;;;;;;;10.38;4.05;;;;;;;33.46;32.60;99755.34;5529878;32;33903;-70
2023/05/23 13:29:54;;;;;;;7.50;3.40;;;;;;;32.90;31.25;99750.34;5527492;32;34906;-69
2023/05/23 13:32:57;;;;;;;11.07;3.67;;;;;;;33.96;31.59;99751.72;5539629;32;33783;-71
2023/05/23 13:36:00;;;;;;;9.68;3.30;;;;;;;35.82;27.88;99751.97;5547633;32;33563;-69
2023/05/23 13:39:04;;;;;;;6.25;3.62;;;;;;;36.84;26.46;99756.69;5547698;32;34150;-68
2023/05/23 13:42:07;;;;;;;6.60;3.15;;;;;;;38.38;25.04;99754.09;5544216;32;33612;-73
2023/05/23 13:45:11;;;;;;;9.07;3.45;;;;;;;39.82;23.07;99758.34;5533616;32;34591;-70
2023/05/23 13:48:15;;;;;;;6.87;3.35;;;;;;;41.51;21.70;99761.06;5545868;32;33788;-72
2023/05/23 13:51:19;;;;;;;4.35;2.75;;;;;;;40.25;22.06;99756.06;5547203;32;33577;-71
2023/05/23 13:54:26;;;;;;;7.40;2.87;;;;;;;38.98;23.46;99755.94;5532594;32;33761;-70
2023/05/23 13:57:30;;;;;;;7.28;3.25;;;;;;;39.41;22.68;99753.84;5536925;32;33861;-70
2023/05/23 14:00:34;;;;;;;9.95;3.25;;;;;;;40.81;21.69;99748.25;5533876;32;33603;-68
2023/05/23 14:03:40;;;;;;;8.70;3.15;;;;;;;39.99;23.61;99745.06;5537350;32;34717;-69
2023/05/23 14:06:44;;;;;;;7.53;2.85;;;;;;;39.74;23.06;99734.44;5543968;32;34089;-71
2023/05/23 14:09:47;;;;;;;5.82;3.10;;;;;;;40.57;21.51;99736.91;5531185;32;33881;-70
2023/05/23 14:12:51;;;;;;;7.72;3.12;;;;;;;38.37;23.59;99730.31;5546760;32;33849;-69
2023/05/23 14:15:55;;;;;;;9.25;2.95;;;;;;;36.52;25.20;99730.97;5545971;32;33819;-69